createdAt,value
2018-06-12T00:00:52.562Z,11.67
2018-06-12T00:03:21.652Z,12.20
2018-06-12T00:05:50.396Z,12.87
2018-06-12T00:08:18.474Z,12.10
2018-06-12T00:10:46.698Z,11.83
2018-06-12T00:13:14.745Z,11.73
2018-06-12T00:15:42.845Z,11.83
2018-06-12T00:18:10.905Z,11.67
2018-06-12T00:20:39.000Z,11.77
2018-06-12T00:23:07.040Z,11.03
2018-06-12T00:25:35.115Z,10.80
2018-06-12T00:28:03.173Z,11.27
2018-06-12T00:30:31.250Z,12.77
2018-06-12T00:32:59.345Z,12.10
2018-06-12T00:35:27.458Z,11.43
2018-06-12T00:37:55.480Z,9.93
2018-06-12T00:40:23.757Z,10.10
2018-06-12T00:42:52.695Z,11.03
2018-06-12T00:45:21.695Z,10.40
2018-06-12T00:47:50.484Z,10.20
2018-06-12T00:50:18.707Z,9.27
2018-06-12T00:52:46.897Z,9.37
2018-06-12T00:55:14.950Z,9.63
2018-06-12T00:57:42.997Z,8.90
2018-06-12T01:00:11.074Z,9.20
2018-06-12T01:02:39.185Z,10.40
2018-06-12T01:05:07.251Z,10.80
2018-06-12T01:07:35.292Z,9.80
2018-06-12T01:10:03.451Z,10.30
2018-06-12T01:12:31.828Z,10.57
2018-06-12T01:14:59.912Z,10.33
2018-06-12T01:17:27.990Z,10.20
2018-06-12T01:19:56.088Z,9.73
2018-06-12T01:22:25.861Z,10.20
2018-06-12T01:24:54.380Z,10.60
2018-06-12T01:27:23.425Z,10.00
2018-06-12T01:29:52.218Z,10.90
2018-06-12T01:32:20.393Z,10.77
2018-06-12T01:34:48.585Z,11.50
2018-06-12T01:37:16.642Z,11.83
2018-06-12T01:39:44.701Z,11.90
2018-06-12T01:42:12.778Z,11.57
2018-06-12T01:44:40.828Z,13.90
2018-06-12T01:47:08.895Z,13.70
2018-06-12T01:49:36.929Z,14.93
2018-06-12T01:52:05.031Z,14.27
2018-06-12T01:54:33.093Z,14.10
2018-06-12T01:57:01.205Z,13.93
2018-06-12T01:59:29.257Z,17.13
2018-06-12T02:01:57.322Z,16.37
2018-06-12T02:04:25.673Z,16.80
2018-06-12T02:06:53.780Z,16.90
2018-06-12T02:09:21.978Z,18.37
2018-06-12T02:11:50.097Z,16.83
2018-06-12T02:14:18.258Z,17.30
2018-06-12T02:16:46.377Z,17.10
2018-06-12T02:19:14.436Z,18.40
2018-06-12T02:21:42.520Z,19.60
2018-06-12T02:24:10.584Z,20.07
2018-06-12T02:26:38.693Z,20.13
2018-06-12T02:29:06.770Z,19.27
2018-06-12T02:31:34.865Z,18.07
2018-06-12T02:34:03.490Z,19.50
2018-06-12T02:36:32.541Z,18.07
2018-06-12T02:39:01.507Z,21.33
2018-06-12T02:41:30.290Z,18.57
2018-06-12T02:43:58.486Z,20.47
2018-06-12T02:46:26.697Z,20.93
2018-06-12T02:48:54.744Z,18.30
2018-06-12T02:51:22.816Z,19.90
2018-06-12T02:53:50.871Z,18.37
2018-06-12T02:56:18.956Z,18.20
2018-06-12T02:58:46.999Z,18.97
2018-06-12T03:01:15.076Z,19.13
2018-06-12T03:03:43.164Z,18.70
2018-06-12T03:06:11.225Z,20.80
2018-06-12T03:08:39.350Z,18.83
2018-06-12T03:11:07.392Z,22.00
2018-06-12T03:13:35.470Z,20.40
2018-06-12T03:16:04.149Z,20.33
2018-06-12T03:18:33.245Z,21.70
2018-06-12T03:21:01.999Z,22.37
2018-06-12T03:23:30.182Z,19.90
2018-06-12T03:25:59.030Z,21.17
2018-06-12T03:28:27.096Z,20.00
2018-06-12T03:30:55.178Z,24.57
2018-06-12T03:33:23.260Z,21.40
2018-06-12T03:35:51.321Z,21.63
2018-06-12T03:38:19.395Z,23.03
2018-06-12T03:40:47.429Z,20.60
2018-06-12T03:43:15.574Z,22.53
2018-06-12T03:45:43.627Z,22.77
2018-06-12T03:48:11.701Z,22.17
2018-06-12T03:50:39.761Z,23.67
2018-06-12T03:53:07.844Z,23.07
2018-06-12T03:55:35.996Z,21.80
2018-06-12T03:58:04.769Z,20.83
2018-06-12T04:00:34.158Z,23.07
2018-06-12T04:03:02.889Z,21.83
2018-06-12T04:05:31.189Z,25.30
2018-06-12T04:07:59.413Z,22.70
2018-06-12T04:10:27.454Z,23.90
2018-06-12T04:12:55.524Z,24.50
2018-06-12T04:15:23.585Z,24.40
2018-06-12T04:17:51.712Z,25.17
2018-06-12T04:20:19.777Z,25.53
2018-06-12T04:22:47.840Z,24.17
2018-06-12T04:25:15.893Z,25.47
2018-06-12T04:27:43.971Z,23.53
2018-06-12T04:30:12.034Z,23.90
2018-06-12T04:32:40.106Z,27.13
2018-06-12T04:35:08.173Z,26.10
2018-06-12T04:37:36.558Z,27.50
2018-06-12T04:40:05.605Z,28.20
2018-06-12T04:42:34.599Z,30.77
2018-06-12T04:45:03.510Z,30.20
2018-06-12T04:47:31.689Z,27.00
2018-06-12T04:49:59.921Z,29.80
2018-06-12T04:52:27.969Z,28.27
2018-06-12T04:54:56.047Z,28.00
2018-06-12T04:57:24.079Z,27.40
2018-06-12T04:59:52.135Z,27.23
2018-06-12T05:02:20.173Z,29.37
2018-06-12T05:04:48.232Z,30.30
2018-06-12T05:07:16.255Z,29.10
2018-06-12T05:09:44.312Z,28.67
2018-06-12T05:12:12.368Z,26.93
2018-06-12T05:14:40.484Z,29.70
2018-06-12T05:17:08.535Z,29.67
2018-06-12T05:19:36.998Z,29.27
2018-06-12T05:22:06.057Z,28.77
2018-06-12T05:24:35.020Z,32.07
2018-06-12T05:27:03.824Z,30.97
2018-06-12T05:29:32.016Z,32.20
2018-06-12T05:32:00.174Z,31.90
2018-06-12T05:34:28.263Z,32.43
2018-06-12T05:36:56.319Z,31.90
2018-06-12T05:39:24.380Z,32.60
2018-06-12T05:41:52.518Z,33.60
2018-06-12T05:44:20.605Z,33.00
2018-06-12T05:46:48.658Z,32.73
2018-06-12T05:49:16.719Z,30.70
2018-06-12T05:51:44.797Z,30.63
2018-06-12T05:54:12.867Z,27.90
2018-06-12T05:56:40.901Z,30.90
2018-06-12T05:59:09.077Z,29.27
2018-06-12T06:01:37.765Z,28.73
2018-06-12T06:04:06.830Z,28.83
2018-06-12T06:06:35.620Z,28.10
2018-06-12T06:09:06.656Z,33.00
2018-06-12T06:11:35.446Z,31.97
2018-06-12T06:14:03.731Z,31.77
2018-06-12T06:16:31.913Z,25.80
2018-06-12T06:18:59.952Z,28.87
2018-06-12T06:21:28.035Z,28.10
2018-06-12T06:23:56.079Z,27.27
2018-06-12T06:26:24.152Z,29.10
2018-06-12T06:28:52.172Z,30.83
2018-06-12T06:31:20.241Z,27.90
2018-06-12T06:33:48.357Z,29.80
2018-06-12T06:36:16.440Z,28.50
2018-06-12T06:38:44.493Z,26.00
2018-06-12T06:41:12.597Z,28.23
2018-06-12T06:43:40.627Z,29.67
2018-06-12T06:46:09.122Z,27.40
2018-06-12T06:48:38.201Z,28.63
2018-06-12T06:51:07.201Z,23.70
2018-06-12T06:53:35.957Z,29.33
2018-06-12T06:56:04.186Z,28.00
2018-06-12T06:58:32.321Z,27.13
2018-06-12T07:01:00.434Z,28.13
2018-06-12T07:03:28.462Z,25.03
2018-06-12T07:05:56.535Z,29.27
2018-06-12T07:08:24.620Z,27.80
2018-06-12T07:10:52.684Z,25.97
2018-06-12T07:13:20.978Z,24.80
2018-06-12T07:15:49.043Z,22.93
2018-06-12T07:18:17.094Z,27.17
2018-06-12T07:21:19.370Z,28.17
2018-06-12T07:23:47.476Z,26.20
2018-06-12T07:26:15.667Z,25.10
2018-06-12T07:28:43.712Z,26.00
2018-06-12T07:31:11.784Z,27.17
2018-06-12T07:33:40.146Z,26.87
2018-06-12T07:36:08.810Z,24.10
2018-06-12T07:38:37.592Z,26.73
2018-06-12T07:41:05.871Z,24.60
2018-06-12T07:43:34.121Z,22.57
2018-06-12T07:46:02.838Z,24.75
2018-06-12T07:48:30.904Z,25.30
2018-06-12T07:50:58.972Z,22.50
2018-06-12T07:53:27.016Z,24.43
2018-06-12T07:55:55.116Z,21.30
2018-06-12T07:58:23.178Z,23.87
2018-06-12T08:00:51.275Z,21.43
2018-06-12T08:03:19.291Z,19.73
2018-06-12T08:05:47.356Z,20.23
2018-06-12T08:08:15.388Z,22.60
2018-06-12T08:10:43.434Z,22.80
2018-06-12T08:13:11.558Z,22.23
2018-06-12T08:15:40.140Z,20.10
2018-06-12T08:18:08.995Z,18.20
2018-06-12T08:20:37.375Z,21.87
2018-06-12T08:23:05.613Z,19.67
2018-06-12T08:25:33.649Z,17.73
2018-06-12T08:28:01.731Z,18.80
2018-06-12T08:30:29.886Z,17.50
2018-06-12T08:32:57.867Z,18.50
2018-06-12T08:35:25.924Z,21.57
2018-06-12T08:37:53.988Z,19.40
2018-06-12T08:40:22.032Z,18.90
2018-06-12T08:42:50.094Z,20.80
2018-06-12T08:45:18.129Z,20.90
2018-06-12T08:47:46.219Z,19.73
2018-06-12T08:50:14.265Z,19.03
2018-06-12T08:52:42.655Z,18.37
2018-06-12T08:55:11.408Z,17.97
2018-06-12T08:57:40.336Z,18.20
2018-06-12T09:00:08.982Z,17.50
2018-06-12T09:02:37.231Z,20.00
2018-06-12T09:05:05.296Z,21.03
2018-06-12T09:07:33.512Z,22.40
2018-06-12T09:10:02.434Z,22.67
2018-06-12T09:12:31.495Z,23.17
2018-06-12T09:15:00.181Z,20.63
2018-06-12T09:17:28.350Z,23.03
2018-06-12T09:19:56.461Z,23.70
2018-06-12T09:22:24.521Z,23.47
2018-06-12T09:24:52.566Z,21.40
2018-06-12T09:27:20.759Z,23.80
2018-06-12T09:29:48.793Z,19.53
2018-06-12T09:32:16.874Z,24.83
2018-06-12T09:34:44.911Z,20.97
2018-06-12T09:37:13.009Z,20.30
2018-06-12T09:39:41.041Z,22.30
2018-06-12T09:42:09.122Z,19.50
2018-06-12T09:44:37.166Z,20.00
2018-06-12T09:47:05.285Z,17.80
2018-06-12T09:49:33.919Z,18.03
2018-06-12T09:52:02.896Z,17.90
2018-06-12T09:54:31.686Z,18.10
2018-06-12T09:56:59.862Z,17.77
2018-06-12T09:59:28.069Z,17.37
2018-06-12T10:01:56.109Z,18.40
2018-06-12T10:04:24.193Z,16.67
2018-06-12T10:06:52.260Z,20.00
2018-06-12T10:09:20.330Z,18.97
2018-06-12T10:11:48.382Z,20.80
2018-06-12T10:14:16.474Z,18.50
2018-06-12T10:16:44.517Z,20.27
2018-06-12T10:19:12.600Z,19.57
2018-06-12T10:21:40.654Z,17.27
2018-06-12T10:24:08.717Z,20.07
2018-06-12T10:26:36.767Z,20.60
2018-06-12T10:29:05.433Z,19.40
2018-06-12T10:31:34.492Z,20.20
2018-06-12T10:34:03.479Z,18.77
2018-06-12T10:36:32.299Z,19.50
2018-06-12T10:39:00.563Z,18.07
2018-06-12T10:41:28.753Z,17.60
2018-06-12T10:43:56.831Z,16.40
2018-06-12T10:46:24.860Z,18.00
2018-06-12T10:48:52.925Z,18.70
2018-06-12T10:51:20.953Z,17.67
2018-06-12T10:53:49.019Z,17.90
2018-06-12T10:56:17.049Z,14.67
2018-06-12T10:58:45.139Z,16.10
2018-06-12T11:01:13.161Z,16.87
2018-06-12T11:03:41.224Z,16.33
2018-06-12T11:06:09.274Z,15.40
2018-06-12T11:08:37.360Z,16.20
2018-06-12T11:11:05.768Z,16.63
2018-06-12T11:13:34.628Z,18.53
2018-06-12T11:16:03.893Z,16.42
2018-06-12T11:18:32.480Z,17.37
2018-06-12T11:21:00.662Z,14.83
2018-06-12T11:23:28.942Z,15.43
2018-06-12T11:25:57.411Z,16.73
2018-06-12T11:28:25.469Z,16.50
2018-06-12T11:30:53.543Z,15.50
2018-06-12T11:33:21.596Z,15.60
2018-06-12T11:35:49.692Z,16.27
2018-06-12T11:38:17.733Z,18.30
2018-06-12T11:40:45.805Z,17.50
2018-06-12T11:43:13.843Z,15.60
2018-06-12T11:45:41.912Z,18.03
2018-06-12T11:48:09.947Z,16.57
2018-06-12T11:50:38.007Z,17.73
2018-06-12T11:53:06.533Z,16.43
2018-06-12T11:55:35.533Z,17.57
2018-06-12T11:58:04.493Z,16.10
2018-06-12T12:00:33.080Z,15.83
2018-06-12T12:03:01.257Z,15.90
2018-06-12T12:05:29.323Z,16.70
2018-06-12T12:07:57.360Z,15.37
2018-06-12T12:10:25.422Z,16.20
2018-06-12T12:12:53.458Z,17.10
2018-06-12T12:15:21.548Z,16.87
2018-06-12T12:17:49.589Z,15.87
2018-06-12T12:20:17.649Z,15.00
2018-06-12T12:22:45.732Z,16.50
2018-06-12T12:25:13.797Z,17.17
2018-06-12T12:27:41.828Z,16.30
2018-06-12T12:30:09.913Z,16.60
2018-06-12T12:32:37.968Z,17.60
2018-06-12T12:35:06.993Z,16.77
2018-06-12T12:37:35.840Z,17.50
2018-06-12T12:40:04.481Z,17.40
2018-06-12T12:42:32.590Z,16.80
2018-06-12T12:45:00.808Z,17.90
2018-06-12T12:47:28.844Z,16.10
2018-06-12T12:49:56.944Z,21.90
2018-06-12T12:52:24.994Z,19.60
2018-06-12T12:54:53.058Z,20.93
2018-06-12T12:57:21.095Z,18.40
2018-06-12T12:59:49.299Z,18.33
2018-06-12T13:02:17.385Z,16.70
2018-06-12T13:04:45.465Z,15.00
2018-06-12T13:07:13.533Z,16.37
2018-06-12T13:09:41.583Z,14.47
2018-06-12T13:12:09.645Z,16.20
2018-06-12T13:14:38.238Z,14.97
2018-06-12T13:17:07.233Z,14.57
2018-06-12T13:19:36.090Z,15.60
2018-06-12T13:22:04.471Z,13.97
2018-06-12T13:24:32.671Z,13.23
2018-06-12T13:27:00.776Z,12.00
2018-06-12T13:29:28.826Z,14.53
2018-06-12T13:31:56.978Z,13.47
2018-06-12T13:34:25.028Z,12.90
2018-06-12T13:36:53.085Z,14.20
2018-06-12T13:39:21.117Z,12.73
2018-06-12T13:41:49.184Z,14.37
2018-06-12T13:44:17.226Z,12.83
2018-06-12T13:46:45.285Z,12.03
2018-06-12T13:49:13.325Z,12.57
2018-06-12T13:51:41.385Z,14.20
2018-06-12T13:54:09.665Z,14.63
2018-06-12T13:56:38.686Z,11.93
2018-06-12T13:59:07.679Z,10.80
2018-06-12T14:01:36.389Z,11.60
2018-06-12T14:04:04.629Z,12.27
2018-06-12T14:06:32.780Z,13.60
2018-06-12T14:09:01.232Z,11.37
2018-06-12T14:11:30.052Z,10.00
2018-06-12T14:13:58.916Z,10.60
2018-06-12T14:16:27.556Z,10.10
2018-06-12T14:18:56.182Z,11.10
2018-06-12T14:21:24.753Z,12.70
2018-06-12T14:23:53.795Z,10.80
2018-06-12T14:26:22.416Z,12.50
2018-06-12T14:28:51.848Z,12.03
2018-06-12T14:31:20.539Z,13.07
2018-06-12T14:33:49.360Z,12.03
2018-06-12T14:36:18.144Z,10.20
2018-06-12T14:38:46.606Z,11.27
2018-06-12T14:41:15.196Z,10.97
2018-06-12T14:43:43.797Z,10.77
2018-06-12T14:46:11.919Z,12.70
2018-06-12T14:48:40.206Z,13.03
2018-06-12T14:51:09.224Z,11.90
2018-06-12T14:53:38.677Z,12.00
2018-06-12T14:56:08.902Z,11.27
2018-06-12T14:58:38.017Z,11.00
2018-06-12T15:01:07.236Z,11.53
2018-06-12T15:03:36.226Z,10.10
2018-06-12T15:06:04.404Z,7.37
2018-06-12T15:08:32.472Z,8.00
2018-06-12T15:11:00.512Z,8.40
2018-06-12T15:13:28.755Z,10.23
2018-06-12T15:15:56.824Z,7.53
2018-06-12T15:18:24.876Z,9.40
2018-06-12T15:20:52.904Z,8.90
2018-06-12T15:23:20.952Z,8.07
2018-06-12T15:25:49.017Z,10.00
2018-06-12T15:28:17.079Z,12.57
2018-06-12T15:30:45.100Z,7.83
2018-06-12T15:33:13.159Z,8.53
2018-06-12T15:35:41.500Z,8.00
2018-06-12T15:38:10.527Z,6.97
2018-06-12T15:40:39.440Z,7.70
2018-06-12T15:43:08.020Z,7.20
2018-06-12T15:45:36.217Z,8.70
2018-06-12T15:48:04.408Z,7.77
2018-06-12T15:50:32.451Z,7.27
2018-06-12T15:53:00.523Z,7.70
2018-06-12T15:55:28.564Z,15.03
2018-06-12T15:57:56.645Z,9.60
2018-06-12T16:00:24.690Z,8.37
2018-06-12T16:02:52.754Z,7.80
2018-06-12T16:05:20.832Z,6.57
2018-06-12T16:07:48.889Z,6.17
2018-06-12T16:10:16.919Z,6.33
2018-06-12T16:12:45.004Z,6.17
2018-06-12T16:15:13.223Z,7.13
2018-06-12T16:17:42.006Z,6.70
2018-06-12T16:20:11.077Z,6.27
2018-06-12T16:22:39.923Z,7.70
2018-06-12T16:25:08.318Z,9.63
2018-06-12T16:27:36.568Z,9.17
2018-06-12T16:30:04.717Z,9.13
2018-06-12T16:32:32.797Z,14.10
2018-06-12T16:35:00.839Z,10.47
2018-06-12T16:37:28.934Z,9.80
2018-06-12T16:39:57.001Z,10.87
2018-06-12T16:42:25.037Z,9.23
2018-06-12T16:44:53.105Z,8.73
2018-06-12T16:47:21.151Z,9.53
2018-06-12T16:49:49.212Z,8.93
2018-06-12T16:52:17.236Z,8.50
2018-06-12T16:54:45.326Z,9.27
2018-06-12T16:57:13.512Z,8.43
2018-06-12T16:59:42.446Z,11.80
2018-06-12T17:02:11.474Z,15.07
2018-06-12T17:04:40.035Z,17.40
2018-06-12T17:07:08.193Z,17.00
2018-06-12T17:09:36.341Z,17.87
2018-06-12T17:12:04.411Z,18.03
2018-06-12T17:14:32.538Z,17.13
2018-06-12T17:17:00.590Z,16.80
2018-06-12T17:19:28.678Z,15.40
2018-06-12T17:21:56.711Z,15.57
2018-06-12T17:24:24.803Z,15.83
2018-06-12T17:26:52.921Z,14.83
2018-06-12T17:29:20.992Z,16.27
2018-06-12T17:31:49.852Z,14.90
2018-06-12T17:34:17.924Z,15.30
2018-06-12T17:36:45.980Z,17.27
2018-06-12T17:39:14.399Z,15.93
2018-06-12T17:41:43.310Z,16.80
2018-06-12T17:44:12.390Z,16.23
2018-06-12T17:46:42.305Z,15.43
2018-06-12T17:49:10.955Z,14.70
2018-06-12T17:51:39.153Z,15.40
2018-06-12T17:54:07.350Z,16.20
2018-06-12T17:56:35.429Z,35.03
2018-06-12T17:59:03.551Z,31.23
2018-06-12T18:01:31.666Z,35.40
2018-06-12T18:03:59.825Z,17.17
2018-06-12T18:06:27.873Z,17.43
2018-06-12T18:08:55.999Z,17.77
2018-06-12T18:11:24.045Z,17.40
2018-06-12T18:13:52.119Z,17.30
2018-06-12T18:16:20.181Z,16.33
2018-06-12T18:18:48.259Z,17.37
2018-06-12T18:21:16.355Z,15.33
2018-06-12T18:23:44.808Z,17.00
2018-06-12T18:26:13.815Z,13.30
2018-06-12T18:28:42.632Z,12.80
2018-06-12T18:31:10.846Z,13.90
2018-06-12T18:33:39.045Z,13.10
2018-06-12T18:36:07.160Z,11.33
2018-06-12T18:38:35.217Z,12.53
2018-06-12T18:41:03.326Z,14.40
2018-06-12T18:43:31.357Z,12.83
2018-06-12T18:45:59.424Z,12.20
2018-06-12T18:48:27.486Z,13.70
2018-06-12T18:50:55.554Z,14.57
2018-06-12T18:53:23.595Z,14.60
2018-06-12T18:55:51.672Z,16.07
2018-06-12T18:58:19.751Z,14.07
2018-06-12T19:00:47.850Z,15.80
2018-06-12T19:03:16.151Z,13.37
2018-06-12T19:05:45.066Z,12.87
2018-06-12T19:08:14.110Z,14.20
2018-06-12T19:10:42.655Z,11.80
2018-06-12T19:13:10.786Z,13.30
2018-06-12T19:15:38.993Z,14.23
2018-06-12T19:18:07.036Z,12.07
2018-06-12T19:20:35.096Z,12.80
2018-06-12T19:23:03.146Z,11.47
2018-06-12T19:25:31.240Z,14.17
2018-06-12T19:27:59.321Z,12.60
2018-06-12T19:30:27.384Z,12.27
2018-06-12T19:32:55.436Z,12.73
2018-06-12T19:35:23.534Z,9.78
2018-06-12T19:37:51.592Z,12.07
2018-06-12T19:40:19.656Z,11.07
2018-06-12T19:42:47.808Z,10.17
2018-06-12T19:45:16.435Z,9.33
2018-06-12T19:47:45.533Z,9.60
2018-06-12T19:50:14.357Z,10.70
2018-06-12T19:52:42.748Z,9.30
2018-06-12T19:55:10.970Z,9.30
2018-06-12T19:57:39.005Z,9.47
2018-06-12T20:00:08.171Z,9.50
2018-06-12T20:02:36.286Z,9.67
2018-06-12T20:05:04.417Z,10.40
2018-06-12T20:07:32.452Z,8.70
2018-06-12T20:10:00.488Z,9.20
2018-06-12T20:12:28.549Z,9.77
2018-06-12T20:14:56.597Z,9.17
2018-06-12T20:17:24.661Z,10.80
2018-06-12T20:19:52.736Z,10.43
2018-06-12T20:22:20.786Z,10.00
2018-06-12T20:24:48.880Z,9.43
2018-06-12T20:27:17.358Z,10.30
2018-06-12T20:29:46.427Z,8.50
2018-06-12T20:32:15.263Z,8.50
2018-06-12T20:34:43.557Z,8.35
2018-06-12T20:37:11.788Z,9.33
2018-06-12T20:39:39.821Z,9.10
2018-06-12T20:42:07.885Z,8.30
2018-06-12T20:44:35.933Z,8.43
2018-06-12T20:47:03.996Z,7.63
2018-06-12T20:49:32.040Z,6.83
2018-06-12T20:52:00.115Z,8.33
2018-06-12T20:54:28.173Z,8.13
2018-06-12T20:56:57.169Z,9.10
2018-06-12T20:59:25.239Z,9.27
2018-06-12T21:01:53.304Z,9.40
2018-06-12T21:04:21.348Z,8.20
2018-06-12T21:06:49.522Z,8.70
2018-06-12T21:09:18.230Z,8.10
2018-06-12T21:11:47.299Z,7.57
2018-06-12T21:14:15.985Z,7.83
2018-06-12T21:16:44.163Z,7.33
2018-06-12T21:19:12.340Z,8.03
2018-06-12T21:21:40.421Z,7.60
2018-06-12T21:24:10.255Z,7.87
2018-06-12T21:26:38.537Z,7.90
2018-06-12T21:29:06.951Z,8.05
2018-06-12T21:31:35.051Z,9.53
2018-06-12T21:34:03.132Z,8.63
2018-06-12T21:36:31.168Z,7.80
2018-06-12T21:38:59.253Z,7.30
2018-06-12T21:41:27.292Z,7.83
2018-06-12T21:43:55.350Z,7.90
2018-06-12T21:46:23.384Z,8.33
2018-06-12T21:48:51.447Z,9.70
2018-06-12T21:51:19.804Z,8.67
2018-06-12T21:53:48.710Z,8.67
2018-06-12T21:56:17.755Z,7.93
2018-06-12T21:58:46.297Z,7.97
2018-06-12T22:01:14.434Z,7.87
2018-06-12T22:03:42.548Z,7.73
2018-06-12T22:06:10.597Z,8.20
2018-06-12T22:08:38.705Z,7.97
2018-06-12T22:11:06.717Z,8.10
2018-06-12T22:13:35.507Z,7.63
2018-06-12T22:16:03.525Z,7.90
2018-06-12T22:18:31.577Z,7.50
2018-06-12T22:20:59.616Z,7.30
2018-06-12T22:23:27.724Z,7.20
2018-06-12T22:25:55.753Z,7.50
2018-06-12T22:28:23.814Z,7.70
2018-06-12T22:30:51.888Z,7.67
2018-06-12T22:33:20.337Z,8.93
2018-06-12T22:35:49.250Z,7.23
2018-06-12T22:38:18.213Z,6.73
2018-06-12T22:40:46.691Z,8.00
2018-06-12T22:43:15.027Z,7.40
2018-06-12T22:45:43.145Z,6.40
2018-06-12T22:48:11.237Z,7.30
2018-06-12T22:50:39.274Z,6.90
2018-06-12T22:53:07.287Z,6.50
2018-06-12T22:55:35.417Z,6.00
2018-06-12T22:58:03.519Z,6.50
2018-06-12T23:00:31.620Z,6.00
2018-06-12T23:02:59.648Z,6.47
2018-06-12T23:05:27.727Z,5.97
2018-06-12T23:07:55.805Z,6.57
2018-06-12T23:10:23.863Z,6.57
2018-06-12T23:12:52.000Z,5.27
2018-06-12T23:15:20.720Z,7.13
2018-06-12T23:17:49.716Z,5.87
2018-06-12T23:20:23.354Z,7.03
2018-06-12T23:22:51.775Z,5.17
2018-06-12T23:25:20.678Z,6.70
2018-06-12T23:27:49.732Z,5.37
2018-06-12T23:30:18.269Z,5.63
2018-06-12T23:32:46.413Z,5.33
2018-06-12T23:35:14.549Z,5.70
2018-06-12T23:37:42.569Z,6.20
2018-06-12T23:40:10.637Z,5.57
2018-06-12T23:42:38.670Z,6.17
2018-06-12T23:45:06.737Z,5.60
2018-06-12T23:47:35.632Z,7.10
2018-06-12T23:50:03.742Z,6.33
2018-06-12T23:52:31.840Z,5.97
2018-06-12T23:54:59.904Z,6.43
2018-06-12T23:57:27.933Z,6.63
2018-06-12T23:59:56.004Z,5.37
